Time;durP1;ratioP1;P1;durP2;ratioP2;P2;SDS_P1;SDS_P2;PMS_P1;PMS_P2;Temp;Humidity;BMP_temperature;BMP_pressure;BME280_temperature;BME280_humidity;BME280_pressure;Samples;Min_cycle;Max_cycle;Signal;HPM_P1;HPM_P2
2022/12/27 00:03:47;;;;;;;1999.90;999.90;;;4.10;99.90;;;;;;6683365;88;20683;-73
2022/12/27 00:13:48;;;;;;;1999.90;999.90;;;4.20;99.90;;;;;;6682297;88;20199;-73
2022/12/27 00:23:52;;;;;;;1999.90;999.90;;;4.40;99.90;;;;;;6678911;88;20230;-73
2022/12/27 00:33:55;;;;;;;1999.90;999.90;;;4.40;99.90;;;;;;6683238;88;20322;-74
2022/12/27 00:43:55;;;;;;;1999.90;999.90;;;4.30;99.90;;;;;;6679087;88;20200;-74
2022/12/27 00:53:56;;;;;;;1999.90;999.90;;;4.40;99.90;;;;;;6682423;88;20582;-74
2022/12/27 01:03:57;;;;;;;1999.90;999.90;;;4.40;99.90;;;;;;6681241;88;20326;-74
2022/12/27 01:14:00;;;;;;;1999.90;999.90;;;4.40;99.90;;;;;;6679462;88;20771;-74
2022/12/27 01:24:00;;;;;;;1999.90;999.90;;;4.30;99.90;;;;;;6680417;88;20186;-74
2022/12/27 01:34:01;;;;;;;1999.90;999.90;;;4.30;99.90;;;;;;6681547;88;20712;-74
2022/12/27 01:44:41;;;;;;;1999.90;999.90;;;4.20;99.90;;;;;;6682864;88;20206;-74
2022/12/27 01:54:42;;;;;;;1999.90;999.90;;;4.30;99.90;;;;;;6683264;88;20188;-74
2022/12/27 02:04:44;;;;;;;1999.90;999.90;;;4.50;99.90;;;;;;6685611;88;20309;-73
2022/12/27 02:14:48;;;;;;;1999.90;999.90;;;4.70;99.90;;;;;;6690923;88;20218;-74
2022/12/27 02:25:17;;;;;;;1999.90;999.90;;;4.80;99.90;;;;;;6684837;88;20240;-73
2022/12/27 02:35:21;;;;;;;1999.90;999.90;;;5.00;99.90;;;;;;6680629;88;20717;-74
2022/12/27 03:06:38;;;;;;;1999.90;999.90;;;5.00;99.90;;;;;;6679675;88;20719;-74
2022/12/27 03:16:55;;;;;;;1999.90;999.90;;;5.00;99.90;;;;;;6681629;88;20322;-75
2022/12/27 03:26:57;;;;;;;;;;;5.20;99.90;;;;;;6700177;88;20229;-74
2022/12/27 03:47:40;;;;;;;1999.90;999.90;;;5.10;99.90;;;;;;6689727;88;20694;-76
2022/12/27 03:57:41;;;;;;;1999.90;999.90;;;5.10;99.90;;;;;;6693175;88;20195;-75
2022/12/27 04:38:39;;;;;;;1999.90;999.90;;;4.80;99.90;;;;;;6683840;88;20278;-75
2022/12/27 05:19:37;;;;;;;1999.90;999.90;;;4.70;99.90;;;;;;6682404;88;20649;-75
2022/12/27 05:29:37;;;;;;;1999.90;999.90;;;4.80;99.90;;;;;;6681677;88;20205;-75
2022/12/27 05:39:38;;;;;;;1999.90;999.90;;;4.80;99.90;;;;;;6679502;88;20374;-75
2022/12/27 05:49:38;;;;;;;1999.90;999.90;;;4.90;99.90;;;;;;6680174;88;20480;-75
2022/12/27 05:59:38;;;;;;;1999.90;999.90;;;4.90;99.90;;;;;;6680704;88;20258;-75
2022/12/27 06:09:39;;;;;;;1999.90;999.90;;;4.70;99.90;;;;;;6682544;88;20288;-75
2022/12/27 06:19:40;;;;;;;1999.90;999.90;;;4.80;99.90;;;;;;6690448;88;20368;-75
2022/12/27 06:29:40;;;;;;;1999.90;999.90;;;4.80;99.90;;;;;;6685772;88;20535;-73
2022/12/27 06:39:41;;;;;;;1999.90;999.90;;;4.90;99.90;;;;;;6680713;88;20196;-73
2022/12/27 06:49:41;;;;;;;1999.90;999.90;;;4.80;99.90;;;;;;6680324;88;20668;-73
2022/12/27 06:59:42;;;;;;;1999.90;999.90;;;4.60;99.90;;;;;;6681513;88;20249;-74
2022/12/27 07:09:42;;;;;;;1999.90;999.90;;;4.30;99.90;;;;;;6680867;88;20196;-74
2022/12/27 07:19:43;;;;;;;1999.90;999.90;;;4.30;99.90;;;;;;6680842;88;20314;-74
2022/12/27 07:29:43;;;;;;;1999.90;999.90;;;4.20;99.90;;;;;;6690293;88;20695;-75
2022/12/27 07:39:44;;;;;;;1999.90;999.90;;;4.20;99.90;;;;;;6699768;88;20195;-72
2022/12/27 07:49:44;;;;;;;1999.90;999.90;;;4.50;99.90;;;;;;6706841;88;20191;-75
2022/12/27 07:59:45;;;;;;;1999.90;999.90;;;4.60;99.90;;;;;;6698802;88;20199;-73
2022/12/27 08:09:47;;;;;;;1999.90;999.90;;;4.60;99.90;;;;;;6702906;88;20247;-75
2022/12/27 08:19:50;;;;;;;1999.90;999.90;;;4.70;99.90;;;;;;6701800;88;20172;-75
2022/12/27 08:29:51;;;;;;;1999.90;999.90;;;4.70;99.90;;;;;;6701244;88;20564;-73
2022/12/27 08:39:51;;;;;;;1999.90;999.90;;;4.90;99.90;;;;;;6704688;88;20427;-73
2022/12/27 08:49:52;;;;;;;1999.90;999.90;;;5.10;99.90;;;;;;6706692;88;20276;-73
2022/12/27 08:59:53;;;;;;;1999.90;999.90;;;5.40;99.90;;;;;;6707397;88;20218;-74
2022/12/27 09:09:53;;;;;;;1999.90;999.90;;;5.80;99.90;;;;;;6696866;88;20224;-73
2022/12/27 09:19:54;;;;;;;1999.90;999.90;;;6.30;99.90;;;;;;6696009;88;20194;-74
2022/12/27 09:29:54;;;;;;;1999.90;999.90;;;6.70;99.90;;;;;;6698462;88;20381;-74
2022/12/27 09:39:55;;;;;;;1999.90;999.90;;;7.00;99.90;;;;;;6696443;88;20647;-76
2022/12/27 09:50:03;;;;;;;1999.90;999.90;;;7.60;99.90;;;;;;6694451;88;20204;-76
2022/12/27 10:00:13;;;;;;;1999.90;999.90;;;8.00;99.90;;;;;;6690992;88;20200;-75
2022/12/27 10:10:37;;;;;;;1999.90;999.90;;;8.30;99.90;;;;;;6696893;88;20841;-75
2022/12/27 10:21:01;;;;;;;1999.90;999.90;;;8.70;99.90;;;;;;6699667;88;20257;-74
2022/12/27 10:31:03;;;;;;;1999.90;999.90;;;9.30;99.90;;;;;;6700532;88;20215;-76
2022/12/27 10:41:37;;;;;;;1999.90;999.90;;;9.70;99.90;;;;;;6700599;88;20585;-75
2022/12/27 10:51:39;;;;;;;1999.90;999.90;;;9.30;99.90;;;;;;6694616;88;20199;-75
2022/12/27 11:01:40;;;;;;;1999.90;999.90;;;9.70;99.90;;;;;;6697750;88;20199;-74
2022/12/27 11:11:41;;;;;;;1999.90;999.90;;;9.80;99.90;;;;;;6695405;88;20217;-73
2022/12/27 11:21:41;;;;;;;1999.90;999.90;;;9.80;99.90;;;;;;6696279;88;20222;-76
2022/12/27 11:31:47;;;;;;;1999.90;999.90;;;10.40;99.90;;;;;;6698595;88;20198;-76
2022/12/27 11:41:55;;;;;;;1999.90;999.90;;;10.50;99.90;;;;;;6709707;77;20187;-73
2022/12/27 11:52:13;;;;;;;1999.90;999.90;;;10.00;99.90;;;;;;6706535;88;20715;-74
2022/12/27 12:02:24;;;;;;;1999.90;999.90;;;10.20;99.90;;;;;;6706596;88;20247;-73
2022/12/27 12:13:12;;;;;;;1999.90;999.90;;;9.60;99.90;;;;;;6705471;88;20187;-73
2022/12/27 12:23:43;;;;;;;1999.90;999.90;;;9.90;99.90;;;;;;6702339;88;20682;-73
2022/12/27 12:33:53;;;;;;;1999.90;999.90;;;9.70;99.90;;;;;;6702769;88;20193;-74
2022/12/27 12:44:10;;;;;;;1999.90;999.90;;;9.60;99.90;;;;;;6702148;88;20220;-73
2022/12/27 12:54:36;;;;;;;1999.90;999.90;;;10.50;99.90;;;;;;6702290;88;20237;-73
2022/12/27 13:05:07;;;;;;;1999.90;999.90;;;11.00;99.90;;;;;;6703223;88;20193;-73
2022/12/27 13:15:30;;;;;;;1999.90;999.90;;;10.00;99.90;;;;;;6702542;88;20642;-73
2022/12/27 13:25:49;;;;;;;1999.90;999.90;;;10.80;99.90;;;;;;6702636;88;21095;-73
2022/12/27 13:36:06;;;;;;;1999.90;999.90;;;11.40;99.90;;;;;;6698555;88;20191;-73
2022/12/27 13:46:35;;;;;;;1999.90;999.90;;;10.60;99.90;;;;;;6699469;88;20203;-73
2022/12/27 13:56:50;;;;;;;1999.90;999.90;;;9.80;99.90;;;;;;6704309;88;20575;-73
2022/12/27 14:07:25;;;;;;;1999.90;999.90;;;10.10;99.90;;;;;;6699520;88;20224;-74
2022/12/27 14:17:49;;;;;;;1999.90;999.90;;;10.20;99.90;;;;;;6713879;88;20202;-74
2022/12/27 14:28:10;;;;;;;1999.90;999.90;;;10.60;99.90;;;;;;6704753;88;20319;-74
2022/12/27 14:38:25;;;;;;;1999.90;999.90;;;10.50;99.90;;;;;;6701990;88;20686;-74
2022/12/27 14:48:55;;;;;;;1999.90;999.90;;;10.30;99.90;;;;;;6702572;88;20203;-74
2022/12/27 14:59:08;;;;;;;1999.90;999.90;;;9.40;99.90;;;;;;6702656;88;20756;-74
2022/12/27 15:09:41;;;;;;;1999.90;999.90;;;8.90;99.90;;;;;;6715145;88;20204;-73
2022/12/27 15:20:11;;;;;;;1999.90;999.90;;;8.60;99.90;;;;;;6707905;88;20224;-73
2022/12/27 15:30:25;;;;;;;1999.90;999.90;;;8.20;99.90;;;;;;6702255;88;20196;-74
2022/12/27 15:40:35;;;;;;;1999.90;999.90;;;7.90;99.90;;;;;;6707744;88;20630;-75
2022/12/27 15:50:54;;;;;;;1999.90;999.90;;;7.90;99.90;;;;;;6704700;88;20644;-74
2022/12/27 16:01:16;;;;;;;1999.90;999.90;;;7.70;99.90;;;;;;6702398;88;20325;-74
2022/12/27 16:11:17;;;;;;;1999.90;999.90;;;7.40;99.90;;;;;;6697898;88;20588;-74
2022/12/27 16:21:21;;;;;;;1999.90;999.90;;;7.00;99.90;;;;;;6701229;88;20206;-74
2022/12/27 16:31:27;;;;;;;1999.90;999.90;;;6.70;99.90;;;;;;6701242;88;20249;-74
2022/12/27 16:41:58;;;;;;;1999.90;999.90;;;6.60;99.90;;;;;;6704156;88;20225;-73
2022/12/27 16:52:31;;;;;;;1999.90;999.90;;;6.50;99.90;;;;;;6698828;88;20281;-73
2022/12/27 17:02:45;;;;;;;1999.90;999.90;;;6.50;99.90;;;;;;6703036;88;20202;-74
2022/12/27 17:12:50;;;;;;;1999.90;999.90;;;6.40;99.90;;;;;;6703309;88;20190;-73
2022/12/27 17:22:55;;;;;;;1999.90;999.90;;;6.30;99.90;;;;;;6700250;88;20520;-74
2022/12/27 17:33:27;;;;;;;1999.90;999.90;;;6.20;99.90;;;;;;6708481;88;20175;-74
2022/12/27 18:04:53;;;;;;;1999.90;999.90;;;5.90;99.90;;;;;;6713274;88;20197;-73
2022/12/27 18:15:01;;;;;;;1999.90;999.90;;;5.80;99.90;;;;;;6712977;88;20676;-74
2022/12/27 18:25:01;;;;;;;1999.90;999.90;;;5.80;99.90;;;;;;6713074;88;20655;-74
2022/12/27 18:35:02;;;;;;;1999.90;999.90;;;5.70;99.90;;;;;;6712701;88;20318;-74
2022/12/27 18:45:17;;;;;;;1999.90;999.90;;;5.80;99.90;;;;;;6708076;88;20633;-74
2022/12/27 18:55:25;;;;;;;1999.90;999.90;;;5.70;99.90;;;;;;6714105;88;20231;-74
2022/12/27 19:05:28;;;;;;;1999.90;999.90;;;5.70;99.90;;;;;;6721867;88;20174;-74
2022/12/27 19:15:41;;;;;;;1999.90;999.90;;;5.60;99.90;;;;;;6713110;88;20186;-74
2022/12/27 19:25:58;;;;;;;1999.90;999.90;;;5.60;99.90;;;;;;6708941;88;20668;-74
2022/12/27 19:36:01;;;;;;;1999.90;999.90;;;5.60;99.90;;;;;;6712030;88;20227;-74
2022/12/27 19:46:01;;;;;;;1999.90;999.90;;;5.60;99.90;;;;;;6714464;88;20640;-74
2022/12/27 19:56:02;;;;;;;1999.90;999.90;;;5.60;99.90;;;;;;6714936;88;20203;-74
2022/12/27 20:06:03;;;;;;;1999.90;999.90;;;5.50;99.90;;;;;;6715319;88;20218;-73
2022/12/27 20:16:04;;;;;;;1999.90;999.90;;;5.50;99.90;;;;;;6715777;88;20215;-74
2022/12/27 20:26:05;;;;;;;1999.90;999.90;;;5.50;99.90;;;;;;6717890;88;20198;-73
2022/12/27 20:36:07;;;;;;;1999.90;999.90;;;5.40;99.90;;;;;;6719164;88;20686;-74
2022/12/27 20:46:13;;;;;;;1999.90;999.90;;;5.40;99.90;;;;;;6716391;88;20210;-74
2022/12/27 20:56:15;;;;;;;1999.90;999.90;;;5.60;99.90;;;;;;6713232;88;20260;-74
2022/12/27 21:06:19;;;;;;;1999.90;999.90;;;5.60;99.90;;;;;;6717930;88;20205;-75
2022/12/27 21:16:22;;;;;;;1999.90;999.90;;;5.60;99.90;;;;;;6735271;88;20207;-74
2022/12/27 21:26:26;;;;;;;1999.90;999.90;;;5.80;99.90;;;;;;6735467;88;20222;-74
2022/12/27 21:36:30;;;;;;;1999.90;999.90;;;5.90;99.90;;;;;;6718919;88;20645;-74
2022/12/27 21:46:34;;;;;;;1999.90;999.90;;;6.10;99.90;;;;;;6716318;88;20689;-74
2022/12/27 21:56:36;;;;;;;1999.90;999.90;;;6.10;99.90;;;;;;6715577;88;20308;-75
2022/12/27 22:06:38;;;;;;;1999.90;999.90;;;6.20;99.90;;;;;;6714212;88;20190;-74
2022/12/27 22:16:39;;;;;;;1999.90;999.90;;;6.10;99.90;;;;;;6714821;88;20360;-75
2022/12/27 22:26:41;;;;;;;1999.90;999.90;;;6.20;99.90;;;;;;6713979;88;20194;-75
2022/12/27 22:36:42;;;;;;;1999.90;999.90;;;6.30;99.90;;;;;;6713578;88;20208;-75
2022/12/27 22:46:42;;;;;;;1999.90;999.90;;;6.30;99.90;;;;;;6712840;88;20166;-75
2022/12/27 22:56:43;;;;;;;1999.90;999.90;;;6.30;99.90;;;;;;6713332;88;20550;-75
2022/12/27 23:06:44;;;;;;;1999.90;999.90;;;6.30;99.90;;;;;;6723906;88;20335;-75
2022/12/27 23:16:46;;;;;;;1999.90;999.90;;;6.40;99.90;;;;;;6713055;88;20216;-75
2022/12/27 23:26:47;;;;;;;1999.90;999.90;;;6.40;99.90;;;;;;6715234;88;20526;-75
2022/12/27 23:36:48;;;;;;;1999.90;999.90;;;6.40;99.90;;;;;;6714900;88;20218;-74
2022/12/27 23:46:48;;;;;;;1999.90;999.90;;;6.40;99.90;;;;;;6714594;77;20206;-73
2022/12/27 23:56:48;;;;;;;1999.90;999.90;;;6.50;99.90;;;;;;6705132;88;20305;-74
